createdAt,value
2023-01-15T00:00:06.198Z,96370.88
2023-01-15T00:01:18.877Z,96367.31
2023-01-15T00:02:20.770Z,96367.94
2023-01-15T00:03:22.615Z,96364.34
2023-01-15T00:04:24.516Z,96366.13
2023-01-15T00:05:26.344Z,96363.38
2023-01-15T00:06:28.498Z,96360.41
2023-01-15T00:07:30.878Z,96361.03
2023-01-15T00:08:32.741Z,96355.84
2023-01-15T00:09:34.599Z,96358.81
2023-01-15T00:10:36.946Z,96355.41
2023-01-15T00:11:38.731Z,96354.88
2023-01-15T00:12:40.637Z,96356.59
2023-01-15T00:13:42.646Z,96354.56
2023-01-15T00:14:44.412Z,96348.75
2023-01-15T00:15:46.316Z,96347.97
2023-01-15T00:16:51.032Z,96347.34
2023-01-15T00:17:52.824Z,96346.34
2023-01-15T00:18:56.130Z,96346.34
2023-01-15T00:19:58.084Z,96353.13
2023-01-15T00:21:00.510Z,96348.94
2023-01-15T00:22:02.356Z,96343.16
2023-01-15T00:23:04.099Z,96338.75
2023-01-15T00:24:24.936Z,96344.38
2023-01-15T00:25:45.129Z,96333.41
2023-01-15T00:27:05.601Z,96340.94
2023-01-15T00:28:07.443Z,96331.94
2023-01-15T00:29:09.204Z,96331.94
2023-01-15T00:30:12.322Z,96331.13
2023-01-15T00:31:14.512Z,96326.50
2023-01-15T00:32:16.425Z,96329.09
2023-01-15T00:33:18.166Z,96324.72
2023-01-15T00:34:20.126Z,96317.16
2023-01-15T00:35:23.196Z,96322.94
2023-01-15T00:36:26.058Z,96317.16
2023-01-15T00:37:27.992Z,96320.72
2023-01-15T00:38:29.791Z,96323.47
2023-01-15T00:39:31.622Z,96322.84
2023-01-15T00:40:33.429Z,96326.88
2023-01-15T00:41:35.251Z,96329.88
2023-01-15T00:42:37.191Z,96321.78
2023-01-15T00:43:39.032Z,96323.19
2023-01-15T00:44:40.832Z,96320.59
2023-01-15T00:45:42.659Z,96321.59
2023-01-15T00:46:44.735Z,96323.19
2023-01-15T00:47:49.259Z,96317.22
2023-01-15T00:48:51.104Z,96314.44
2023-01-15T00:49:53.633Z,96318.44
2023-01-15T00:50:55.399Z,96315.25
2023-01-15T00:51:57.183Z,96317.84
2023-01-15T00:52:59.036Z,96311.88
2023-01-15T00:54:01.258Z,96314.44
2023-01-15T00:55:03.952Z,96312.84
2023-01-15T00:56:05.794Z,96310.63
2023-01-15T00:57:07.681Z,96318.38
2023-01-15T00:58:09.552Z,96311.59
2023-01-15T00:59:11.337Z,96311.59
2023-01-15T01:00:13.741Z,96310.81
2023-01-15T01:01:15.672Z,96311.78
2023-01-15T01:02:17.587Z,96304.84
2023-01-15T01:03:19.575Z,96313.22
2023-01-15T01:04:21.386Z,96310.00
2023-01-15T01:05:23.235Z,96306.25
2023-01-15T01:06:25.401Z,96306.88
2023-01-15T01:07:27.234Z,96310.25
2023-01-15T01:08:29.780Z,96310.25
2023-01-15T01:09:31.728Z,96310.38
2023-01-15T01:10:33.470Z,96295.84
2023-01-15T01:11:37.041Z,96298.44
2023-01-15T01:12:38.990Z,96301.19
2023-01-15T01:13:41.113Z,96303.59
2023-01-15T01:14:44.268Z,96287.88
2023-01-15T01:15:46.050Z,96287.69
2023-01-15T01:16:47.873Z,96290.91
2023-01-15T01:17:49.643Z,96285.38
2023-01-15T01:18:51.614Z,96277.41
2023-01-15T01:19:53.529Z,96283.41
2023-01-15T01:20:55.422Z,96276.63
2023-01-15T01:21:57.195Z,96281.78
2023-01-15T01:22:58.956Z,96275.38
2023-01-15T01:24:01.003Z,96272.19
2023-01-15T01:25:02.833Z,96268.97
2023-01-15T01:26:04.768Z,96262.22
2023-01-15T01:27:06.631Z,96263.00
2023-01-15T01:28:08.522Z,96264.44
2023-01-15T01:29:12.556Z,96261.84
2023-01-15T01:30:14.959Z,96261.03
2023-01-15T01:31:16.984Z,96256.50
2023-01-15T01:32:18.786Z,96259.88
2023-01-15T01:33:20.595Z,96254.25
2023-01-15T01:34:22.404Z,96253.03
2023-01-15T01:35:24.242Z,96258.19
2023-01-15T01:36:28.269Z,96249.66
2023-01-15T01:37:29.981Z,96250.25
2023-01-15T01:38:31.775Z,96240.53
2023-01-15T01:39:33.605Z,96239.56
2023-01-15T01:40:35.412Z,96243.72
2023-01-15T01:41:37.272Z,96238.75
2023-01-15T01:42:39.169Z,96230.75
2023-01-15T01:44:01.094Z,96239.66
2023-01-15T01:45:05.732Z,96240.47
2023-01-15T01:46:07.520Z,96239.66
2023-01-15T01:47:23.035Z,96243.25
2023-01-15T01:48:26.967Z,96242.00
2023-01-15T01:49:29.443Z,96236.41
2023-01-15T01:50:32.512Z,96237.56
2023-01-15T01:51:37.022Z,96237.13
2023-01-15T01:52:42.555Z,96231.34
2023-01-15T01:53:44.591Z,96236.94
2023-01-15T01:54:47.575Z,96235.94
2023-01-15T01:55:50.691Z,96231.59
2023-01-15T01:56:52.689Z,96231.78
2023-01-15T01:57:56.488Z,96234.38
2023-01-15T01:58:58.561Z,96234.97
2023-01-15T02:00:01.592Z,96231.00
2023-01-15T02:01:03.740Z,96226.44
2023-01-15T02:02:06.295Z,96229.81
2023-01-15T02:03:09.662Z,96230.38
2023-01-15T02:04:11.976Z,96231.34
2023-01-15T02:05:26.135Z,96224.03
2023-01-15T02:06:29.118Z,96219.28
2023-01-15T02:07:33.808Z,96225.44
2023-01-15T02:08:39.580Z,96221.88
2023-01-15T02:09:41.549Z,96221.66
2023-01-15T02:10:43.930Z,96209.56
2023-01-15T02:11:45.854Z,96206.97
2023-01-15T02:13:07.901Z,96207.78
2023-01-15T02:14:33.914Z,96204.00
2023-01-15T02:15:47.988Z,96204.00
2023-01-15T02:16:59.044Z,96203.22
2023-01-15T02:18:15.513Z,96202.59
2023-01-15T02:19:37.436Z,96198.59
2023-01-15T02:20:45.157Z,96194.06
2023-01-15T02:22:19.318Z,96196.81
2023-01-15T02:23:28.321Z,96198.78
2023-01-15T02:24:43.824Z,96192.81
2023-01-15T02:26:04.197Z,96198.97
2023-01-15T02:27:08.085Z,96200.38
2023-01-15T02:28:17.449Z,96201.81
2023-01-15T02:29:25.096Z,96199.41
2023-01-15T02:30:26.825Z,96193.22
2023-01-15T02:31:37.582Z,96190.66
2023-01-15T02:32:59.738Z,96193.84
2023-01-15T02:34:12.388Z,96190.66
2023-01-15T02:35:34.456Z,96192.25
2023-01-15T02:36:38.863Z,96193.22
2023-01-15T02:37:45.838Z,96190.28
2023-01-15T02:38:49.563Z,96193.50
2023-01-15T02:39:52.015Z,96195.28
2023-01-15T02:40:56.612Z,96187.53
2023-01-15T02:42:01.428Z,96196.06
2023-01-15T02:43:04.576Z,96199.63
2023-01-15T02:44:07.839Z,96194.09
2023-01-15T02:45:11.148Z,96187.31
2023-01-15T02:46:14.862Z,96199.28
2023-01-15T02:47:19.171Z,96189.28
2023-01-15T02:48:24.667Z,96190.91
2023-01-15T02:49:27.300Z,96197.25
2023-01-15T02:50:32.039Z,96190.47
2023-01-15T02:51:38.267Z,96186.91
2023-01-15T02:52:44.955Z,96182.72
2023-01-15T02:53:48.724Z,96184.13
2023-01-15T02:54:54.102Z,96187.53
2023-01-15T02:55:58.399Z,96178.94
2023-01-15T02:57:02.552Z,96173.97
2023-01-15T02:58:06.457Z,96176.34
2023-01-15T02:59:11.275Z,96175.38
2023-01-15T03:00:14.255Z,96174.38
2023-01-15T03:01:31.764Z,96172.63
2023-01-15T03:02:37.254Z,96171.81
2023-01-15T03:03:52.364Z,96171.56
2023-01-15T03:05:02.526Z,96169.00
2023-01-15T03:06:28.063Z,96169.44
2023-01-15T03:07:37.420Z,96172.97
2023-01-15T03:08:39.205Z,96171.19
2023-01-15T03:09:41.112Z,96168.59
2023-01-15T03:10:46.973Z,96171.19
2023-01-15T03:12:02.897Z,96162.19
2023-01-15T03:13:05.995Z,96166.03
2023-01-15T03:14:09.764Z,96170.22
2023-01-15T03:15:40.864Z,96161.47
2023-01-15T03:16:46.415Z,96167.84
2023-01-15T03:17:56.025Z,96158.50
2023-01-15T03:19:19.798Z,96159.69
2023-01-15T03:20:27.115Z,96156.28
2023-01-15T03:21:38.499Z,96155.50
2023-01-15T03:22:43.559Z,96158.25
2023-01-15T03:23:48.026Z,96150.88
2023-01-15T03:24:52.337Z,96154.28
2023-01-15T03:25:54.294Z,96150.88
2023-01-15T03:26:56.464Z,96153.31
2023-01-15T03:28:00.517Z,96155.88
2023-01-15T03:29:04.332Z,96141.53
2023-01-15T03:30:07.911Z,96143.31
2023-01-15T03:31:09.850Z,96144.72
2023-01-15T03:32:11.853Z,96145.16
2023-01-15T03:33:15.448Z,96139.19
2023-01-15T03:34:17.341Z,96139.00
2023-01-15T03:35:38.044Z,96133.63
2023-01-15T03:36:39.849Z,96141.38
2023-01-15T03:37:41.673Z,96129.28
2023-01-15T03:38:47.155Z,96138.63
2023-01-15T03:39:49.423Z,96130.88
2023-01-15T03:41:11.535Z,96132.47
2023-01-15T03:42:31.963Z,96128.72
2023-01-15T03:43:52.284Z,96132.91
2023-01-15T03:44:57.146Z,96127.91
2023-01-15T03:46:01.274Z,96127.31
2023-01-15T03:47:18.109Z,96127.91
2023-01-15T03:48:38.163Z,96127.09
2023-01-15T03:49:45.917Z,96129.50
2023-01-15T03:50:54.091Z,96121.75
2023-01-15T03:52:25.136Z,96130.13
2023-01-15T03:53:45.985Z,96124.94
2023-01-15T03:54:54.116Z,96126.56
2023-01-15T03:56:02.139Z,96127.00
2023-01-15T03:57:11.492Z,96115.63
2023-01-15T03:58:18.222Z,96120.03
2023-01-15T03:59:23.479Z,96117.44
2023-01-15T04:00:32.648Z,96121.41
2023-01-15T04:01:38.882Z,96117.25
2023-01-15T04:02:41.070Z,96122.59
2023-01-15T04:03:43.632Z,96120.03
2023-01-15T04:04:46.594Z,96120.38
2023-01-15T04:05:49.103Z,96127.16
2023-01-15T04:06:51.095Z,96125.38
2023-01-15T04:07:54.487Z,96121.19
2023-01-15T04:08:56.796Z,96116.03
2023-01-15T04:09:58.571Z,96123.78
2023-01-15T04:11:01.714Z,96116.81
2023-01-15T04:12:03.649Z,96117.63
2023-01-15T04:13:06.656Z,96120.81
2023-01-15T04:14:08.595Z,96113.06
2023-01-15T04:15:11.459Z,96115.03
2023-01-15T04:16:13.292Z,96120.03
2023-01-15T04:17:15.228Z,96110.47
2023-01-15T04:18:17.409Z,96116.44
2023-01-15T04:19:19.190Z,96119.84
2023-01-15T04:20:20.943Z,96118.22
2023-01-15T04:21:22.897Z,96118.84
2023-01-15T04:22:24.704Z,96115.88
2023-01-15T04:23:26.505Z,96115.88
2023-01-15T04:24:28.305Z,96108.75
2023-01-15T04:25:30.135Z,96118.88
2023-01-15T04:26:32.000Z,96118.25
2023-01-15T04:27:33.820Z,96116.50
2023-01-15T04:28:35.805Z,96115.50
2023-01-15T04:29:37.661Z,96117.28
2023-01-15T04:30:39.776Z,96115.50
2023-01-15T04:31:41.716Z,96114.69
2023-01-15T04:32:43.933Z,96110.31
2023-01-15T04:33:45.736Z,96114.69
2023-01-15T04:34:47.569Z,96110.31
2023-01-15T04:35:49.457Z,96115.50
2023-01-15T04:36:51.214Z,96118.09
2023-01-15T04:37:59.740Z,96117.09
2023-01-15T04:39:02.135Z,96115.50
2023-01-15T04:40:04.100Z,96121.47
2023-01-15T04:41:24.542Z,96118.69
2023-01-15T04:42:52.369Z,96113.53
2023-01-15T04:44:09.075Z,96112.34
2023-01-15T04:45:11.024Z,96114.13
2023-01-15T04:46:12.822Z,96111.53
2023-01-15T04:47:14.668Z,96111.53
2023-01-15T04:48:16.567Z,96110.34
2023-01-15T04:49:18.917Z,96113.56
2023-01-15T04:50:20.691Z,96111.97
2023-01-15T04:51:22.550Z,96108.19
2023-01-15T04:52:24.281Z,96109.81
2023-01-15T04:53:26.274Z,96105.59
2023-01-15T04:54:28.168Z,96103.81
2023-01-15T04:55:30.437Z,96106.41
2023-01-15T04:56:33.133Z,96110.41
2023-01-15T04:57:35.694Z,96101.66
2023-01-15T04:58:38.497Z,96108.03
2023-01-15T04:59:40.318Z,96107.06
2023-01-15T05:00:42.219Z,96114.66
2023-01-15T05:01:58.037Z,96110.09
2023-01-15T05:03:04.113Z,96110.09
2023-01-15T05:04:06.356Z,96117.03
2023-01-15T05:05:08.543Z,96110.09
2023-01-15T05:06:10.866Z,96107.28
2023-01-15T05:07:12.872Z,96107.09
2023-01-15T05:08:14.665Z,96106.13
2023-01-15T05:09:16.700Z,96103.72
2023-01-15T05:10:18.415Z,96107.09
2023-01-15T05:11:20.676Z,96097.75
2023-01-15T05:12:22.561Z,96101.13
2023-01-15T05:13:24.417Z,96104.34
2023-01-15T05:14:26.414Z,96104.34
2023-01-15T05:15:28.271Z,96099.75
2023-01-15T05:16:30.997Z,96100.38
2023-01-15T05:17:33.253Z,96102.78
2023-01-15T05:18:35.132Z,96100.78
2023-01-15T05:19:36.918Z,96094.44
2023-01-15T05:20:38.783Z,96095.03
2023-01-15T05:21:42.254Z,96091.44
2023-01-15T05:22:44.037Z,96093.06
2023-01-15T05:23:46.014Z,96098.06
2023-01-15T05:24:47.811Z,96095.47
2023-01-15T05:25:49.715Z,96097.22
2023-01-15T05:26:51.599Z,96090.66
2023-01-15T05:27:53.416Z,96089.25
2023-01-15T05:28:56.224Z,96083.06
2023-01-15T05:29:58.054Z,96085.88
2023-01-15T05:30:59.901Z,96075.53
2023-01-15T05:32:01.656Z,96072.72
2023-01-15T05:33:03.479Z,96068.16
2023-01-15T05:34:05.279Z,96050.03
2023-01-15T05:35:07.448Z,96048.25
2023-01-15T05:36:14.252Z,96043.09
2023-01-15T05:37:16.076Z,96042.88
2023-01-15T05:38:17.857Z,96038.09
2023-01-15T05:39:19.754Z,96029.41
2023-01-15T05:40:21.485Z,96041.00
2023-01-15T05:41:41.646Z,96028.69
2023-01-15T05:42:43.494Z,96041.63
2023-01-15T05:43:45.244Z,96038.25
2023-01-15T05:44:47.066Z,96031.88
2023-01-15T05:45:48.861Z,96028.31
2023-01-15T05:46:52.081Z,96031.91
2023-01-15T05:47:54.136Z,96026.34
2023-01-15T05:48:59.673Z,96024.34
2023-01-15T05:50:01.509Z,96020.97
2023-01-15T05:51:03.299Z,96012.41
2023-01-15T05:52:05.303Z,96020.97
2023-01-15T05:53:07.387Z,96013.97
2023-01-15T05:54:11.514Z,96015.59
2023-01-15T05:55:13.350Z,96004.81
2023-01-15T05:56:15.215Z,96002.81
2023-01-15T05:57:17.056Z,96004.03
2023-01-15T05:58:18.866Z,96010.81
2023-01-15T05:59:21.853Z,96012.00
2023-01-15T06:00:23.819Z,96007.84
2023-01-15T06:01:25.652Z,96015.81
2023-01-15T06:02:27.653Z,96004.03
2023-01-15T06:03:29.521Z,96015.59
2023-01-15T06:04:31.527Z,96004.81
2023-01-15T06:05:33.343Z,96004.44
2023-01-15T06:06:36.170Z,96001.25
2023-01-15T06:07:37.956Z,96005.00
2023-01-15T06:08:39.795Z,96002.41
2023-01-15T06:09:41.657Z,96004.41
2023-01-15T06:10:45.004Z,95996.63
2023-01-15T06:11:47.699Z,95988.84
2023-01-15T06:12:49.595Z,95993.25
2023-01-15T06:13:51.434Z,95986.50
2023-01-15T06:14:53.182Z,95984.88
2023-01-15T06:15:55.150Z,95990.84
2023-01-15T06:16:57.060Z,95977.91
2023-01-15T06:17:58.893Z,95978.91
2023-01-15T06:19:02.155Z,95977.28
2023-01-15T06:20:04.361Z,95974.69
2023-01-15T06:21:07.127Z,95973.72
2023-01-15T06:22:10.940Z,95964.16
2023-01-15T06:23:12.967Z,95966.75
2023-01-15T06:24:16.991Z,95967.16
2023-01-15T06:25:18.748Z,95964.56
2023-01-15T06:26:20.641Z,95967.94
2023-01-15T06:27:22.525Z,95961.75
2023-01-15T06:28:24.578Z,95961.94
2023-01-15T06:29:27.091Z,95965.53
2023-01-15T06:30:28.864Z,95959.75
2023-01-15T06:31:30.814Z,95957.56
2023-01-15T06:32:32.681Z,95961.34
2023-01-15T06:33:34.671Z,95949.59
2023-01-15T06:34:36.594Z,95949.78
2023-01-15T06:35:38.421Z,95942.22
2023-01-15T06:36:40.347Z,95949.78
2023-01-15T06:37:42.157Z,95953.56
2023-01-15T06:38:44.486Z,95949.38
2023-01-15T06:39:46.364Z,95939.00
2023-01-15T06:40:48.309Z,95939.44
2023-01-15T06:42:08.747Z,95943.78
2023-01-15T06:43:29.735Z,95927.47
2023-01-15T06:44:49.826Z,95931.84
2023-01-15T06:46:10.105Z,95934.25
2023-01-15T06:47:22.894Z,95930.25
2023-01-15T06:48:26.134Z,95927.47
2023-01-15T06:49:27.907Z,95919.69
2023-01-15T06:50:29.850Z,95927.47
2023-01-15T06:51:31.621Z,95912.94
2023-01-15T06:52:33.378Z,95909.13
2023-01-15T06:53:35.222Z,95914.31
2023-01-15T06:54:37.077Z,95915.13
2023-01-15T06:55:38.983Z,95911.53
2023-01-15T06:56:40.867Z,95907.94
2023-01-15T06:57:42.834Z,95897.59
2023-01-15T06:58:44.677Z,95896.59
2023-01-15T06:59:46.768Z,95905.94
2023-01-15T07:00:55.392Z,95901.97
2023-01-15T07:01:57.440Z,95898.38
2023-01-15T07:03:02.685Z,95904.56
2023-01-15T07:04:04.705Z,95896.00
2023-01-15T07:05:06.652Z,95901.56
2023-01-15T07:06:09.257Z,95898.00
2023-01-15T07:07:11.026Z,95897.19
2023-01-15T07:08:12.922Z,95898.38
2023-01-15T07:09:15.339Z,95905.53
2023-01-15T07:10:17.354Z,95902.34
2023-01-15T07:11:19.138Z,95900.78
2023-01-15T07:12:21.709Z,95898.19
2023-01-15T07:13:23.559Z,95899.75
2023-01-15T07:14:26.997Z,95895.59
2023-01-15T07:15:28.999Z,95900.78
2023-01-15T07:16:30.823Z,95895.59
2023-01-15T07:17:32.693Z,95893.59
2023-01-15T07:18:34.580Z,95890.19
2023-01-15T07:19:36.382Z,95897.19
2023-01-15T07:20:38.343Z,95892.41
2023-01-15T07:21:40.277Z,95891.59
2023-01-15T07:22:42.184Z,95894.00
2023-01-15T07:23:44.103Z,95891.41
2023-01-15T07:24:45.926Z,95886.41
2023-01-15T07:25:47.874Z,95890.00
2023-01-15T07:26:49.693Z,95888.41
2023-01-15T07:27:51.688Z,95887.63
2023-01-15T07:28:53.555Z,95887.63
2023-01-15T07:29:55.331Z,95884.84
2023-01-15T07:30:58.786Z,95887.22
2023-01-15T07:32:00.752Z,95886.41
2023-01-15T07:33:02.716Z,95888.81
2023-01-15T07:34:04.947Z,95886.22
2023-01-15T07:35:06.805Z,95876.66
2023-01-15T07:36:09.039Z,95874.88
2023-01-15T07:37:10.944Z,95876.47
2023-01-15T07:38:12.818Z,95869.47
2023-01-15T07:39:14.743Z,95873.88
2023-01-15T07:40:16.602Z,95867.72
2023-01-15T07:41:36.719Z,95861.53
2023-01-15T07:42:56.852Z,95863.13
2023-01-15T07:44:17.146Z,95863.72
2023-01-15T07:45:37.449Z,95871.28
2023-01-15T07:46:58.131Z,95873.69
2023-01-15T07:48:18.252Z,95865.72
2023-01-15T07:49:38.380Z,95873.28
2023-01-15T07:50:40.154Z,95865.53
2023-01-15T07:51:41.962Z,95875.66
2023-01-15T07:52:43.909Z,95882.44
2023-01-15T07:53:45.809Z,95878.84
2023-01-15T07:54:48.280Z,95881.25
2023-01-15T07:55:50.179Z,95882.25
2023-01-15T07:56:53.218Z,95882.44
2023-01-15T07:57:55.169Z,95887.63
2023-01-15T07:58:57.032Z,95878.06
2023-01-15T07:59:58.829Z,95891.78
2023-01-15T08:01:00.760Z,95893.59
2023-01-15T08:02:02.802Z,95895.22
2023-01-15T08:03:04.620Z,95889.22
2023-01-15T08:04:06.397Z,95891.00
2023-01-15T08:05:09.464Z,95893.59
2023-01-15T08:06:11.345Z,95898.78
2023-01-15T08:07:13.291Z,95888.41
2023-01-15T08:08:15.892Z,95890.22
2023-01-15T08:09:17.752Z,95897.38
2023-01-15T08:10:20.305Z,95895.41
2023-01-15T08:11:40.574Z,95895.41
2023-01-15T08:13:00.644Z,95893.59
2023-01-15T08:14:20.968Z,95898.41
2023-01-15T08:15:22.773Z,95894.00
2023-01-15T08:16:24.600Z,95899.38
2023-01-15T08:17:26.391Z,95899.38
2023-01-15T08:18:28.280Z,95899.97
2023-01-15T08:19:32.609Z,95899.19
2023-01-15T08:20:35.058Z,95905.34
2023-01-15T08:21:36.901Z,95900.97
2023-01-15T08:22:39.011Z,95905.16
2023-01-15T08:23:40.908Z,95908.34
2023-01-15T08:24:42.638Z,95905.75
2023-01-15T08:25:44.424Z,95905.75
2023-01-15T08:26:46.285Z,95903.97
2023-01-15T08:27:48.164Z,95899.59
2023-01-15T08:28:50.048Z,95905.56
2023-01-15T08:29:53.165Z,95908.94
2023-01-15T08:30:54.967Z,95904.34
2023-01-15T08:31:56.811Z,95904.34
2023-01-15T08:33:03.481Z,95899.78
2023-01-15T08:34:05.389Z,95902.16
2023-01-15T08:35:07.499Z,95906.16
2023-01-15T08:36:09.355Z,95904.38
2023-01-15T08:37:11.131Z,95899.97
2023-01-15T08:38:13.058Z,95903.16
2023-01-15T08:39:15.060Z,95901.19
2023-01-15T08:40:16.931Z,95901.19
2023-01-15T08:41:18.772Z,95894.00
2023-01-15T08:42:21.357Z,95898.75
2023-01-15T08:43:23.160Z,95893.59
2023-01-15T08:44:25.177Z,95894.78
2023-01-15T08:45:26.895Z,95891.19
2023-01-15T08:46:28.799Z,95894.41
2023-01-15T08:47:32.960Z,95894.19
2023-01-15T08:48:34.795Z,95896.19
2023-01-15T08:49:36.695Z,95905.56
2023-01-15T08:50:38.671Z,95898.38
2023-01-15T08:51:40.682Z,95903.16
2023-01-15T08:52:42.489Z,95902.53
2023-01-15T08:53:44.507Z,95889.38
2023-01-15T08:54:46.389Z,95892.56
2023-01-15T08:55:49.030Z,95896.75
2023-01-15T08:56:50.924Z,95902.31
2023-01-15T08:57:52.787Z,95901.13
2023-01-15T08:58:54.628Z,95895.53
2023-01-15T08:59:56.578Z,95894.31
2023-01-15T09:01:08.811Z,95892.31
2023-01-15T09:02:12.707Z,95889.53
2023-01-15T09:03:15.162Z,95885.97
2023-01-15T09:04:18.331Z,95889.94
2023-01-15T09:05:20.313Z,95889.94
2023-01-15T09:06:22.228Z,95893.31
2023-01-15T09:07:24.092Z,95889.72
2023-01-15T09:08:26.363Z,95892.13
2023-01-15T09:09:28.300Z,95890.31
2023-01-15T09:10:30.170Z,95893.50
2023-01-15T09:11:32.239Z,95894.09
2023-01-15T09:12:34.092Z,95891.50
2023-01-15T09:13:36.629Z,95884.72
2023-01-15T09:14:56.884Z,95894.91
2023-01-15T09:16:01.135Z,95885.13
2023-01-15T09:17:03.036Z,95888.28
2023-01-15T09:18:04.973Z,95889.69
2023-01-15T09:19:07.384Z,95890.50
2023-01-15T09:20:10.288Z,95887.09
2023-01-15T09:21:12.235Z,95892.28
2023-01-15T09:22:14.155Z,95885.09
2023-01-15T09:23:16.234Z,95889.28
2023-01-15T09:24:18.050Z,95886.50
2023-01-15T09:25:20.380Z,95886.50
2023-01-15T09:26:30.335Z,95890.66
2023-01-15T09:27:34.496Z,95880.28
2023-01-15T09:28:36.355Z,95882.69
2023-01-15T09:29:38.374Z,95885.88
2023-01-15T09:30:40.274Z,95883.47
2023-01-15T09:31:42.095Z,95885.88
2023-01-15T09:32:44.027Z,95891.66
2023-01-15T09:33:45.834Z,95887.06
2023-01-15T09:34:47.686Z,95883.44
2023-01-15T09:35:49.612Z,95895.44
2023-01-15T09:36:51.529Z,95888.63
2023-01-15T09:37:53.923Z,95884.44
2023-01-15T09:38:56.273Z,95885.25
2023-01-15T09:39:58.193Z,95889.66
2023-01-15T09:41:07.477Z,95893.22
2023-01-15T09:42:24.687Z,95888.03
2023-01-15T09:43:49.827Z,95886.03
2023-01-15T09:44:55.206Z,95880.84
2023-01-15T09:46:11.431Z,95872.88
2023-01-15T09:47:33.945Z,95878.88
2023-01-15T09:48:44.671Z,95873.69
2023-01-15T09:49:49.575Z,95871.88
2023-01-15T09:50:57.412Z,95871.09
2023-01-15T09:52:19.540Z,95867.47
2023-01-15T09:53:39.787Z,95864.88
2023-01-15T09:54:53.724Z,95859.88
2023-01-15T09:55:55.704Z,95851.31
2023-01-15T09:56:57.758Z,95855.28
2023-01-15T09:58:01.656Z,95849.13
2023-01-15T09:59:15.216Z,95841.53
2023-01-15T10:00:21.360Z,95836.34
2023-01-15T10:01:27.740Z,95837.94
2023-01-15T10:02:44.041Z,95837.72
2023-01-15T10:03:48.274Z,95841.91
2023-01-15T10:04:54.497Z,95837.91
2023-01-15T10:06:03.660Z,95846.47
2023-01-15T10:07:24.017Z,95843.88
2023-01-15T10:08:37.624Z,95840.88
2023-01-15T10:09:41.080Z,95835.69
2023-01-15T10:10:46.137Z,95830.72
2023-01-15T10:12:10.611Z,95836.69
2023-01-15T10:13:19.671Z,95843.06
2023-01-15T10:14:30.249Z,95837.06
2023-01-15T10:15:44.144Z,95840.47
2023-01-15T10:16:46.000Z,95841.47
2023-01-15T10:17:49.489Z,95844.06
2023-01-15T10:18:51.575Z,95845.66
2023-01-15T10:19:53.475Z,95837.88
2023-01-15T10:21:05.620Z,95844.66
2023-01-15T10:22:14.290Z,95836.28
2023-01-15T10:23:32.396Z,95841.47
2023-01-15T10:24:34.143Z,95841.69
2023-01-15T10:25:43.648Z,95840.31
2023-01-15T10:26:45.457Z,95840.31
2023-01-15T10:27:49.879Z,95835.13
2023-01-15T10:29:03.686Z,95834.28
2023-01-15T10:30:07.047Z,95841.50
2023-01-15T10:31:18.745Z,95841.72
2023-01-15T10:32:24.715Z,95845.31
2023-01-15T10:33:38.384Z,95835.94
2023-01-15T10:35:04.162Z,95833.94
2023-01-15T10:36:13.675Z,95832.53
2023-01-15T10:37:20.763Z,95829.16
2023-01-15T10:38:40.635Z,95827.56
2023-01-15T10:39:42.491Z,95829.94
2023-01-15T10:40:54.388Z,95828.75
2023-01-15T10:41:56.171Z,95826.34
2023-01-15T10:43:05.451Z,95830.31
2023-01-15T10:44:45.960Z,95829.34
2023-01-15T10:45:49.585Z,95821.13
2023-01-15T10:46:58.467Z,95827.69
2023-01-15T10:48:06.969Z,95820.13
2023-01-15T10:49:16.264Z,95820.13
2023-01-15T10:50:19.796Z,95815.53
2023-01-15T10:51:21.579Z,95813.53
2023-01-15T10:52:33.950Z,95806.53
2023-01-15T10:53:42.642Z,95812.88
2023-01-15T10:54:49.112Z,95811.09
2023-01-15T10:55:53.365Z,95810.69
2023-01-15T10:57:02.520Z,95807.06
2023-01-15T10:58:16.450Z,95803.47
2023-01-15T10:59:22.630Z,95809.47
2023-01-15T11:00:24.996Z,95816.03
2023-01-15T11:01:27.684Z,95809.03
2023-01-15T11:02:38.419Z,95811.41
2023-01-15T11:03:42.135Z,95813.81
2023-01-15T11:04:45.662Z,95819.59
2023-01-15T11:05:48.227Z,95810.56
2023-01-15T11:06:50.163Z,95817.75
2023-01-15T11:09:23.309Z,95819.72
2023-01-15T11:10:25.262Z,95816.91
2023-01-15T11:11:59.354Z,95814.53
2023-01-15T11:13:21.582Z,95813.94
2023-01-15T11:15:01.144Z,95814.94
2023-01-15T11:16:21.722Z,95802.97
2023-01-15T11:17:50.541Z,95804.53
2023-01-15T11:19:11.137Z,95784.59
2023-01-15T11:20:16.823Z,95778.59
2023-01-15T11:21:19.898Z,95772.41
2023-01-15T11:22:21.852Z,95771.59
2023-01-15T11:23:23.947Z,95778.59
2023-01-15T11:24:26.597Z,95775.00
2023-01-15T11:25:30.336Z,95780.19
2023-01-15T11:26:33.303Z,95786.16
2023-01-15T11:27:36.476Z,95788.56
2023-01-15T11:28:43.575Z,95787.78
2023-01-15T11:29:45.556Z,95786.94
2023-01-15T11:30:53.912Z,95782.56
2023-01-15T11:31:55.820Z,95780.78
2023-01-15T11:32:58.822Z,95778.16
2023-01-15T11:34:05.770Z,95781.56
2023-01-15T11:35:18.894Z,95771.16
2023-01-15T11:36:23.716Z,95773.19
2023-01-15T11:37:26.240Z,95777.38
2023-01-15T11:38:46.675Z,95775.97
2023-01-15T11:39:55.631Z,95767.63
2023-01-15T11:40:59.953Z,95774.22
2023-01-15T11:42:21.377Z,95761.25
2023-01-15T11:43:43.539Z,95760.25
2023-01-15T11:45:14.113Z,95757.88
2023-01-15T11:46:50.492Z,95757.09
2023-01-15T11:48:11.638Z,95761.50
2023-01-15T11:49:36.073Z,95761.25
2023-01-15T11:50:48.391Z,95752.69
2023-01-15T11:51:50.519Z,95747.47
2023-01-15T11:52:55.379Z,95750.28
2023-01-15T11:54:00.836Z,95745.31
2023-01-15T11:55:04.342Z,95737.31
2023-01-15T11:56:10.040Z,95727.94
2023-01-15T11:57:12.533Z,95731.13
2023-01-15T11:58:14.439Z,95730.34
2023-01-15T11:59:19.096Z,95727.75
2023-01-15T12:00:25.928Z,95735.28
2023-01-15T12:01:33.652Z,95729.13
2023-01-15T12:02:48.182Z,95732.28
2023-01-15T12:03:50.059Z,95736.25
2023-01-15T12:04:59.388Z,95731.84
2023-01-15T12:06:06.180Z,95738.84
2023-01-15T12:07:13.450Z,95738.66
2023-01-15T12:08:38.740Z,95741.81
2023-01-15T12:09:55.819Z,95738.78
2023-01-15T12:11:26.793Z,95726.38
2023-01-15T12:12:32.006Z,95726.97
2023-01-15T12:13:39.473Z,95726.97
2023-01-15T12:14:59.349Z,95734.34
2023-01-15T12:16:15.061Z,95728.56
2023-01-15T12:17:24.352Z,95733.75
2023-01-15T12:18:33.844Z,95734.56
2023-01-15T12:19:41.771Z,95734.34
2023-01-15T12:20:46.731Z,95732.53
2023-01-15T12:22:07.295Z,95730.53
2023-01-15T12:23:27.553Z,95735.72
2023-01-15T12:24:48.092Z,95739.09
2023-01-15T12:25:56.650Z,95738.09
2023-01-15T12:27:10.762Z,95738.91
2023-01-15T12:28:16.240Z,95739.69
2023-01-15T12:29:18.023Z,95742.28
2023-01-15T12:30:24.565Z,95741.13
2023-01-15T12:31:31.189Z,95744.16
2023-01-15T12:32:39.661Z,95753.97
2023-01-15T12:34:01.741Z,95759.34
2023-01-15T12:35:16.117Z,95753.00
2023-01-15T12:36:20.764Z,95755.22
2023-01-15T12:37:26.437Z,95752.63
2023-01-15T12:38:51.292Z,95756.81
2023-01-15T12:39:59.507Z,95755.22
2023-01-15T12:41:08.467Z,95759.81
2023-01-15T12:42:32.392Z,95754.63
2023-01-15T12:43:52.493Z,95759.81
2023-01-15T12:45:02.118Z,95761.84
2023-01-15T12:46:05.616Z,95765.47
2023-01-15T12:47:10.510Z,95767.03
2023-01-15T12:48:20.075Z,95771.03
2023-01-15T12:49:45.188Z,95767.03
2023-01-15T12:50:48.339Z,95772.03
2023-01-15T12:51:58.196Z,95775.41
2023-01-15T12:53:04.638Z,95779.41
2023-01-15T12:54:12.429Z,95780.59